sensor_id;sensor_type;location;lat;lon;timestamp;P1;durP1;ratioP1;P2;durP2;ratioP2
35326;SDS011;21436;52.348;20.928;2024-01-30T00:00:55;53.05;;;21.83;;
35326;SDS011;21436;52.348;20.928;2024-01-30T00:03:43;55.28;;;23.70;;
35326;SDS011;21436;52.348;20.928;2024-01-30T00:06:11;49.40;;;20.70;;
35326;SDS011;21436;52.348;20.928;2024-01-30T00:08:39;56.40;;;22.98;;
35326;SDS011;21436;52.348;20.928;2024-01-30T00:11:07;55.83;;;23.45;;
35326;SDS011;21436;52.348;20.928;2024-01-30T00:13:35;51.20;;;22.88;;
35326;SDS011;21436;52.348;20.928;2024-01-30T00:16:03;48.33;;;22.20;;
35326;SDS011;21436;52.348;20.928;2024-01-30T00:18:32;55.67;;;23.83;;
35326;SDS011;21436;52.348;20.928;2024-01-30T00:21:00;52.08;;;22.17;;
35326;SDS011;21436;52.348;20.928;2024-01-30T00:23:28;56.28;;;23.13;;
35326;SDS011;21436;52.348;20.928;2024-01-30T00:25:56;53.67;;;21.80;;
35326;SDS011;21436;52.348;20.928;2024-01-30T00:28:24;61.58;;;23.42;;
35326;SDS011;21436;52.348;20.928;2024-01-30T00:30:52;49.47;;;22.05;;
35326;SDS011;21436;52.348;20.928;2024-01-30T00:33:20;55.42;;;22.80;;
35326;SDS011;21436;52.348;20.928;2024-01-30T00:35:49;51.40;;;20.88;;
35326;SDS011;21436;52.348;20.928;2024-01-30T00:38:16;50.72;;;22.15;;
35326;SDS011;21436;52.348;20.928;2024-01-30T00:40:44;51.25;;;21.38;;
35326;SDS011;21436;52.348;20.928;2024-01-30T00:43:12;51.33;;;21.90;;
35326;SDS011;21436;52.348;20.928;2024-01-30T00:45:40;54.10;;;22.45;;
35326;SDS011;21436;52.348;20.928;2024-01-30T00:48:08;53.80;;;23.52;;
35326;SDS011;21436;52.348;20.928;2024-01-30T00:50:36;53.65;;;22.45;;
35326;SDS011;21436;52.348;20.928;2024-01-30T00:53:04;54.88;;;23.00;;
35326;SDS011;21436;52.348;20.928;2024-01-30T00:55:32;51.10;;;21.55;;
35326;SDS011;21436;52.348;20.928;2024-01-30T00:58:00;54.55;;;21.77;;
35326;SDS011;21436;52.348;20.928;2024-01-30T01:00:28;58.13;;;23.00;;
35326;SDS011;21436;52.348;20.928;2024-01-30T01:02:57;51.63;;;21.90;;
35326;SDS011;21436;52.348;20.928;2024-01-30T01:05:26;53.47;;;24.02;;
35326;SDS011;21436;52.348;20.928;2024-01-30T01:07:54;55.50;;;23.65;;
35326;SDS011;21436;52.348;20.928;2024-01-30T01:10:22;53.90;;;21.83;;
35326;SDS011;21436;52.348;20.928;2024-01-30T01:12:50;47.78;;;22.13;;
35326;SDS011;21436;52.348;20.928;2024-01-30T01:15:18;51.55;;;22.70;;
35326;SDS011;21436;52.348;20.928;2024-01-30T01:17:46;51.53;;;22.85;;
35326;SDS011;21436;52.348;20.928;2024-01-30T01:20:14;57.17;;;23.50;;
35326;SDS011;21436;52.348;20.928;2024-01-30T01:22:42;53.35;;;22.35;;
35326;SDS011;21436;52.348;20.928;2024-01-30T01:25:10;57.40;;;23.77;;
35326;SDS011;21436;52.348;20.928;2024-01-30T01:27:38;51.22;;;22.65;;
35326;SDS011;21436;52.348;20.928;2024-01-30T01:30:09;55.47;;;23.02;;
35326;SDS011;21436;52.348;20.928;2024-01-30T01:32:37;50.85;;;22.40;;
35326;SDS011;21436;52.348;20.928;2024-01-30T01:35:06;56.17;;;23.42;;
35326;SDS011;21436;52.348;20.928;2024-01-30T01:37:34;61.47;;;23.38;;
35326;SDS011;21436;52.348;20.928;2024-01-30T01:40:02;58.83;;;24.27;;
35326;SDS011;21436;52.348;20.928;2024-01-30T01:42:31;54.78;;;22.98;;
35326;SDS011;21436;52.348;20.928;2024-01-30T01:44:58;50.13;;;23.08;;
35326;SDS011;21436;52.348;20.928;2024-01-30T01:47:27;56.75;;;22.52;;
35326;SDS011;21436;52.348;20.928;2024-01-30T01:49:54;52.20;;;23.88;;
35326;SDS011;21436;52.348;20.928;2024-01-30T01:52:23;51.45;;;23.05;;
35326;SDS011;21436;52.348;20.928;2024-01-30T01:54:51;52.17;;;22.58;;
35326;SDS011;21436;52.348;20.928;2024-01-30T01:57:19;57.17;;;23.23;;
35326;SDS011;21436;52.348;20.928;2024-01-30T01:59:47;62.60;;;24.40;;
35326;SDS011;21436;52.348;20.928;2024-01-30T02:02:15;59.95;;;23.48;;
35326;SDS011;21436;52.348;20.928;2024-01-30T02:04:45;59.38;;;24.17;;
35326;SDS011;21436;52.348;20.928;2024-01-30T02:07:13;56.08;;;24.00;;
35326;SDS011;21436;52.348;20.928;2024-01-30T02:09:41;60.13;;;23.92;;
35326;SDS011;21436;52.348;20.928;2024-01-30T02:12:09;60.88;;;24.17;;
35326;SDS011;21436;52.348;20.928;2024-01-30T02:14:46;65.47;;;24.67;;
35326;SDS011;21436;52.348;20.928;2024-01-30T02:17:15;62.47;;;24.88;;
35326;SDS011;21436;52.348;20.928;2024-01-30T02:19:43;57.08;;;23.77;;
35326;SDS011;21436;52.348;20.928;2024-01-30T02:22:12;59.55;;;23.80;;
35326;SDS011;21436;52.348;20.928;2024-01-30T02:24:40;58.92;;;24.13;;
35326;SDS011;21436;52.348;20.928;2024-01-30T02:27:08;53.92;;;23.20;;
35326;SDS011;21436;52.348;20.928;2024-01-30T02:29:36;55.05;;;23.92;;
35326;SDS011;21436;52.348;20.928;2024-01-30T02:32:04;60.92;;;25.83;;
35326;SDS011;21436;52.348;20.928;2024-01-30T02:34:33;59.78;;;24.55;;
35326;SDS011;21436;52.348;20.928;2024-01-30T02:37:01;55.80;;;24.67;;
35326;SDS011;21436;52.348;20.928;2024-01-30T02:39:29;57.13;;;24.10;;
35326;SDS011;21436;52.348;20.928;2024-01-30T02:41:57;58.50;;;24.48;;
35326;SDS011;21436;52.348;20.928;2024-01-30T02:44:25;59.15;;;24.98;;
35326;SDS011;21436;52.348;20.928;2024-01-30T02:46:53;57.08;;;23.60;;
35326;SDS011;21436;52.348;20.928;2024-01-30T02:49:22;56.17;;;23.23;;
35326;SDS011;21436;52.348;20.928;2024-01-30T02:51:51;54.55;;;23.00;;
35326;SDS011;21436;52.348;20.928;2024-01-30T02:54:20;59.35;;;24.40;;
35326;SDS011;21436;52.348;20.928;2024-01-30T02:56:48;56.53;;;23.75;;
35326;SDS011;21436;52.348;20.928;2024-01-30T02:59:16;59.65;;;24.13;;
35326;SDS011;21436;52.348;20.928;2024-01-30T03:01:44;54.17;;;24.63;;
35326;SDS011;21436;52.348;20.928;2024-01-30T03:04:14;61.15;;;24.33;;
35326;SDS011;21436;52.348;20.928;2024-01-30T03:06:45;60.67;;;23.58;;
35326;SDS011;21436;52.348;20.928;2024-01-30T03:09:18;58.05;;;24.55;;
35326;SDS011;21436;52.348;20.928;2024-01-30T03:11:46;61.33;;;24.48;;
35326;SDS011;21436;52.348;20.928;2024-01-30T03:14:13;56.72;;;24.35;;
35326;SDS011;21436;52.348;20.928;2024-01-30T03:16:41;59.55;;;23.90;;
35326;SDS011;21436;52.348;20.928;2024-01-30T03:19:09;55.67;;;24.55;;
35326;SDS011;21436;52.348;20.928;2024-01-30T03:21:37;52.40;;;22.58;;
35326;SDS011;21436;52.348;20.928;2024-01-30T03:24:05;60.03;;;25.30;;
35326;SDS011;21436;52.348;20.928;2024-01-30T03:26:33;62.42;;;25.88;;
35326;SDS011;21436;52.348;20.928;2024-01-30T03:29:01;61.35;;;24.75;;
35326;SDS011;21436;52.348;20.928;2024-01-30T03:31:29;60.92;;;25.70;;
35326;SDS011;21436;52.348;20.928;2024-01-30T03:33:57;58.03;;;22.60;;
35326;SDS011;21436;52.348;20.928;2024-01-30T03:36:25;55.95;;;22.75;;
35326;SDS011;21436;52.348;20.928;2024-01-30T03:38:54;54.22;;;22.17;;
35326;SDS011;21436;52.348;20.928;2024-01-30T03:41:22;55.75;;;23.27;;
35326;SDS011;21436;52.348;20.928;2024-01-30T03:43:50;52.10;;;23.50;;
35326;SDS011;21436;52.348;20.928;2024-01-30T03:46:18;55.60;;;23.60;;
35326;SDS011;21436;52.348;20.928;2024-01-30T03:48:46;55.47;;;23.00;;
35326;SDS011;21436;52.348;20.928;2024-01-30T03:51:14;55.50;;;22.85;;
35326;SDS011;21436;52.348;20.928;2024-01-30T03:53:43;61.67;;;23.33;;
35326;SDS011;21436;52.348;20.928;2024-01-30T03:56:11;51.05;;;22.27;;
35326;SDS011;21436;52.348;20.928;2024-01-30T03:58:43;59.35;;;24.05;;
35326;SDS011;21436;52.348;20.928;2024-01-30T04:01:14;58.10;;;24.23;;
35326;SDS011;21436;52.348;20.928;2024-01-30T04:03:42;56.90;;;23.98;;
35326;SDS011;21436;52.348;20.928;2024-01-30T04:06:12;52.63;;;22.50;;
35326;SDS011;21436;52.348;20.928;2024-01-30T04:08:39;56.20;;;23.15;;
35326;SDS011;21436;52.348;20.928;2024-01-30T04:11:07;53.08;;;23.10;;
35326;SDS011;21436;52.348;20.928;2024-01-30T04:13:35;56.67;;;24.27;;
35326;SDS011;21436;52.348;20.928;2024-01-30T04:16:03;53.22;;;21.95;;
35326;SDS011;21436;52.348;20.928;2024-01-30T04:18:31;53.03;;;21.40;;
35326;SDS011;21436;52.348;20.928;2024-01-30T04:21:01;55.03;;;22.02;;
35326;SDS011;21436;52.348;20.928;2024-01-30T04:23:28;55.08;;;21.75;;
35326;SDS011;21436;52.348;20.928;2024-01-30T04:25:57;57.28;;;22.27;;
35326;SDS011;21436;52.348;20.928;2024-01-30T04:28:24;50.63;;;23.13;;
35326;SDS011;21436;52.348;20.928;2024-01-30T04:30:52;55.60;;;21.85;;
35326;SDS011;21436;52.348;20.928;2024-01-30T04:33:21;55.03;;;20.92;;
35326;SDS011;21436;52.348;20.928;2024-01-30T04:35:49;49.95;;;22.00;;
35326;SDS011;21436;52.348;20.928;2024-01-30T04:38:17;50.78;;;21.00;;
35326;SDS011;21436;52.348;20.928;2024-01-30T04:40:45;53.03;;;22.27;;
35326;SDS011;21436;52.348;20.928;2024-01-30T04:43:12;49.72;;;20.83;;
35326;SDS011;21436;52.348;20.928;2024-01-30T04:45:42;51.30;;;22.02;;
35326;SDS011;21436;52.348;20.928;2024-01-30T04:48:10;51.90;;;21.15;;
35326;SDS011;21436;52.348;20.928;2024-01-30T04:50:38;50.28;;;20.58;;
35326;SDS011;21436;52.348;20.928;2024-01-30T04:53:06;51.53;;;19.85;;
35326;SDS011;21436;52.348;20.928;2024-01-30T04:55:35;41.88;;;19.67;;
35326;SDS011;21436;52.348;20.928;2024-01-30T04:58:03;50.28;;;20.92;;
35326;SDS011;21436;52.348;20.928;2024-01-30T05:00:32;47.72;;;21.33;;
35326;SDS011;21436;52.348;20.928;2024-01-30T05:02:59;51.38;;;20.88;;
35326;SDS011;21436;52.348;20.928;2024-01-30T05:05:28;50.40;;;21.40;;
35326;SDS011;21436;52.348;20.928;2024-01-30T05:07:55;53.10;;;21.63;;
35326;SDS011;21436;52.348;20.928;2024-01-30T05:10:24;56.72;;;21.40;;
35326;SDS011;21436;52.348;20.928;2024-01-30T05:12:51;48.47;;;20.45;;
35326;SDS011;21436;52.348;20.928;2024-01-30T05:15:19;44.22;;;19.05;;
35326;SDS011;21436;52.348;20.928;2024-01-30T05:17:47;50.40;;;20.75;;
35326;SDS011;21436;52.348;20.928;2024-01-30T05:20:16;52.25;;;19.67;;
35326;SDS011;21436;52.348;20.928;2024-01-30T05:22:44;47.22;;;19.98;;
35326;SDS011;21436;52.348;20.928;2024-01-30T05:25:13;53.70;;;20.35;;
35326;SDS011;21436;52.348;20.928;2024-01-30T05:27:41;49.85;;;20.05;;
35326;SDS011;21436;52.348;20.928;2024-01-30T05:30:09;51.22;;;21.00;;
35326;SDS011;21436;52.348;20.928;2024-01-30T06:11:10;54.40;;;22.58;;
35326;SDS011;21436;52.348;20.928;2024-01-30T06:13:39;51.13;;;20.73;;
35326;SDS011;21436;52.348;20.928;2024-01-30T06:16:09;49.38;;;21.45;;
35326;SDS011;21436;52.348;20.928;2024-01-30T06:18:38;48.75;;;21.63;;
35326;SDS011;21436;52.348;20.928;2024-01-30T06:21:06;55.10;;;20.75;;
35326;SDS011;21436;52.348;20.928;2024-01-30T06:23:37;48.83;;;19.60;;
35326;SDS011;21436;52.348;20.928;2024-01-30T06:26:06;48.83;;;19.50;;
35326;SDS011;21436;52.348;20.928;2024-01-30T06:28:34;48.92;;;20.42;;
35326;SDS011;21436;52.348;20.928;2024-01-30T06:31:02;52.67;;;21.08;;
35326;SDS011;21436;52.348;20.928;2024-01-30T06:33:29;48.03;;;20.23;;
35326;SDS011;21436;52.348;20.928;2024-01-30T06:35:57;47.85;;;20.95;;
35326;SDS011;21436;52.348;20.928;2024-01-30T06:38:25;45.17;;;20.50;;
35326;SDS011;21436;52.348;20.928;2024-01-30T06:40:53;48.22;;;20.38;;
35326;SDS011;21436;52.348;20.928;2024-01-30T06:43:21;48.53;;;19.65;;
35326;SDS011;21436;52.348;20.928;2024-01-30T06:45:49;50.88;;;19.10;;
35326;SDS011;21436;52.348;20.928;2024-01-30T06:48:18;51.28;;;21.75;;
35326;SDS011;21436;52.348;20.928;2024-01-30T06:50:46;46.10;;;21.23;;
35326;SDS011;21436;52.348;20.928;2024-01-30T06:53:15;50.50;;;20.17;;
35326;SDS011;21436;52.348;20.928;2024-01-30T06:55:44;51.60;;;20.60;;
35326;SDS011;21436;52.348;20.928;2024-01-30T06:58:12;47.70;;;21.40;;
35326;SDS011;21436;52.348;20.928;2024-01-30T07:00:40;46.22;;;19.30;;
35326;SDS011;21436;52.348;20.928;2024-01-30T07:03:08;45.60;;;19.38;;
35326;SDS011;21436;52.348;20.928;2024-01-30T07:05:35;46.25;;;19.45;;
35326;SDS011;21436;52.348;20.928;2024-01-30T07:08:03;47.25;;;20.33;;
35326;SDS011;21436;52.348;20.928;2024-01-30T07:10:31;50.38;;;19.55;;
35326;SDS011;21436;52.348;20.928;2024-01-30T07:13:00;46.08;;;18.65;;
35326;SDS011;21436;52.348;20.928;2024-01-30T07:15:28;44.63;;;19.25;;
35326;SDS011;21436;52.348;20.928;2024-01-30T07:17:56;41.83;;;18.95;;
35326;SDS011;21436;52.348;20.928;2024-01-30T07:20:23;45.88;;;19.55;;
35326;SDS011;21436;52.348;20.928;2024-01-30T07:22:51;48.53;;;18.73;;
35326;SDS011;21436;52.348;20.928;2024-01-30T07:25:19;53.83;;;20.75;;
35326;SDS011;21436;52.348;20.928;2024-01-30T07:27:47;46.45;;;20.25;;
35326;SDS011;21436;52.348;20.928;2024-01-30T07:30:14;45.97;;;18.67;;
35326;SDS011;21436;52.348;20.928;2024-01-30T07:32:44;45.33;;;19.70;;
35326;SDS011;21436;52.348;20.928;2024-01-30T07:35:12;41.25;;;19.05;;
35326;SDS011;21436;52.348;20.928;2024-01-30T07:37:40;41.38;;;18.90;;
35326;SDS011;21436;52.348;20.928;2024-01-30T07:40:08;44.67;;;19.15;;
35326;SDS011;21436;52.348;20.928;2024-01-30T07:42:36;43.75;;;17.80;;
35326;SDS011;21436;52.348;20.928;2024-01-30T07:45:04;47.25;;;19.02;;
35326;SDS011;21436;52.348;20.928;2024-01-30T07:47:32;40.35;;;18.48;;
35326;SDS011;21436;52.348;20.928;2024-01-30T07:50:00;45.90;;;19.70;;
35326;SDS011;21436;52.348;20.928;2024-01-30T07:52:28;43.17;;;17.50;;
35326;SDS011;21436;52.348;20.928;2024-01-30T07:54:56;44.38;;;18.13;;
35326;SDS011;21436;52.348;20.928;2024-01-30T07:57:23;50.13;;;18.33;;
35326;SDS011;21436;52.348;20.928;2024-01-30T07:59:52;42.10;;;18.27;;
35326;SDS011;21436;52.348;20.928;2024-01-30T08:02:19;41.17;;;18.02;;
35326;SDS011;21436;52.348;20.928;2024-01-30T08:04:48;43.90;;;17.02;;
35326;SDS011;21436;52.348;20.928;2024-01-30T08:07:16;43.72;;;17.25;;
35326;SDS011;21436;52.348;20.928;2024-01-30T08:09:45;41.67;;;16.77;;
35326;SDS011;21436;52.348;20.928;2024-01-30T08:12:12;41.33;;;16.85;;
35326;SDS011;21436;52.348;20.928;2024-01-30T08:14:41;44.40;;;18.63;;
35326;SDS011;21436;52.348;20.928;2024-01-30T08:17:08;39.38;;;18.60;;
35326;SDS011;21436;52.348;20.928;2024-01-30T08:19:36;40.63;;;16.55;;
35326;SDS011;21436;52.348;20.928;2024-01-30T08:22:04;48.92;;;17.27;;
35326;SDS011;21436;52.348;20.928;2024-01-30T08:24:31;39.50;;;16.63;;
35326;SDS011;21436;52.348;20.928;2024-01-30T08:26:59;37.20;;;16.90;;
35326;SDS011;21436;52.348;20.928;2024-01-30T08:29:28;47.50;;;17.33;;
35326;SDS011;21436;52.348;20.928;2024-01-30T08:31:56;37.38;;;15.68;;
35326;SDS011;21436;52.348;20.928;2024-01-30T08:34:23;37.40;;;16.00;;
35326;SDS011;21436;52.348;20.928;2024-01-30T08:36:51;39.63;;;15.88;;
35326;SDS011;21436;52.348;20.928;2024-01-30T08:39:19;36.45;;;16.05;;
35326;SDS011;21436;52.348;20.928;2024-01-30T08:41:47;30.83;;;15.05;;
35326;SDS011;21436;52.348;20.928;2024-01-30T08:44:15;42.00;;;15.95;;
35326;SDS011;21436;52.348;20.928;2024-01-30T08:46:43;39.50;;;16.58;;
35326;SDS011;21436;52.348;20.928;2024-01-30T08:49:12;37.90;;;16.02;;
35326;SDS011;21436;52.348;20.928;2024-01-30T08:51:40;36.20;;;16.00;;
35326;SDS011;21436;52.348;20.928;2024-01-30T08:54:08;41.58;;;15.98;;
35326;SDS011;21436;52.348;20.928;2024-01-30T08:56:35;36.90;;;15.30;;
35326;SDS011;21436;52.348;20.928;2024-01-30T08:59:03;37.22;;;16.10;;
35326;SDS011;21436;52.348;20.928;2024-01-30T09:01:31;35.28;;;16.17;;
35326;SDS011;21436;52.348;20.928;2024-01-30T09:03:58;39.80;;;16.08;;
35326;SDS011;21436;52.348;20.928;2024-01-30T09:06:26;40.70;;;15.82;;
35326;SDS011;21436;52.348;20.928;2024-01-30T09:08:55;36.88;;;15.55;;
35326;SDS011;21436;52.348;20.928;2024-01-30T09:11:24;33.20;;;15.57;;
35326;SDS011;21436;52.348;20.928;2024-01-30T09:13:52;39.35;;;15.88;;
35326;SDS011;21436;52.348;20.928;2024-01-30T09:16:19;35.40;;;15.30;;
35326;SDS011;21436;52.348;20.928;2024-01-30T09:18:47;31.95;;;15.15;;
35326;SDS011;21436;52.348;20.928;2024-01-30T09:21:15;36.83;;;15.55;;
35326;SDS011;21436;52.348;20.928;2024-01-30T09:23:43;37.22;;;15.70;;
35326;SDS011;21436;52.348;20.928;2024-01-30T09:26:10;30.95;;;13.98;;
35326;SDS011;21436;52.348;20.928;2024-01-30T09:28:40;33.85;;;14.98;;
35326;SDS011;21436;52.348;20.928;2024-01-30T09:31:10;36.22;;;14.82;;
35326;SDS011;21436;52.348;20.928;2024-01-30T09:33:38;28.63;;;13.68;;
35326;SDS011;21436;52.348;20.928;2024-01-30T09:36:06;29.77;;;13.50;;
35326;SDS011;21436;52.348;20.928;2024-01-30T09:38:34;30.75;;;14.27;;
35326;SDS011;21436;52.348;20.928;2024-01-30T09:41:03;29.95;;;14.48;;
35326;SDS011;21436;52.348;20.928;2024-01-30T09:43:37;27.92;;;13.30;;
35326;SDS011;21436;52.348;20.928;2024-01-30T09:46:05;27.83;;;12.85;;
35326;SDS011;21436;52.348;20.928;2024-01-30T09:48:33;25.70;;;12.60;;
35326;SDS011;21436;52.348;20.928;2024-01-30T09:51:01;31.35;;;13.13;;
35326;SDS011;21436;52.348;20.928;2024-01-30T09:53:29;28.13;;;12.45;;
35326;SDS011;21436;52.348;20.928;2024-01-30T09:55:57;26.13;;;11.95;;
35326;SDS011;21436;52.348;20.928;2024-01-30T09:58:25;29.60;;;13.27;;
35326;SDS011;21436;52.348;20.928;2024-01-30T10:00:53;27.00;;;11.82;;
35326;SDS011;21436;52.348;20.928;2024-01-30T10:03:25;22.52;;;11.23;;
35326;SDS011;21436;52.348;20.928;2024-01-30T10:05:54;24.52;;;11.35;;
35326;SDS011;21436;52.348;20.928;2024-01-30T10:08:22;24.48;;;11.48;;
35326;SDS011;21436;52.348;20.928;2024-01-30T10:10:50;20.00;;;10.43;;
35326;SDS011;21436;52.348;20.928;2024-01-30T10:13:18;24.05;;;10.93;;
35326;SDS011;21436;52.348;20.928;2024-01-30T10:15:45;23.73;;;10.85;;
35326;SDS011;21436;52.348;20.928;2024-01-30T10:18:15;28.13;;;11.52;;
35326;SDS011;21436;52.348;20.928;2024-01-30T10:20:42;24.85;;;11.23;;
35326;SDS011;21436;52.348;20.928;2024-01-30T10:23:10;23.23;;;10.75;;
35326;SDS011;21436;52.348;20.928;2024-01-30T10:25:38;25.42;;;10.95;;
35326;SDS011;21436;52.348;20.928;2024-01-30T10:28:06;23.35;;;11.32;;
35326;SDS011;21436;52.348;20.928;2024-01-30T10:30:34;24.02;;;10.85;;
35326;SDS011;21436;52.348;20.928;2024-01-30T10:33:02;28.80;;;11.15;;
35326;SDS011;21436;52.348;20.928;2024-01-30T10:35:29;23.13;;;11.73;;
35326;SDS011;21436;52.348;20.928;2024-01-30T10:37:57;24.38;;;10.45;;
35326;SDS011;21436;52.348;20.928;2024-01-30T10:40:28;20.25;;;10.48;;
35326;SDS011;21436;52.348;20.928;2024-01-30T10:42:57;26.20;;;10.30;;
35326;SDS011;21436;52.348;20.928;2024-01-30T10:45:28;26.63;;;11.00;;
35326;SDS011;21436;52.348;20.928;2024-01-30T10:47:56;24.30;;;10.77;;
35326;SDS011;21436;52.348;20.928;2024-01-30T10:50:25;19.08;;;9.63;;
35326;SDS011;21436;52.348;20.928;2024-01-30T10:52:54;28.20;;;11.70;;
35326;SDS011;21436;52.348;20.928;2024-01-30T10:55:22;20.98;;;10.70;;
35326;SDS011;21436;52.348;20.928;2024-01-30T10:57:51;25.58;;;10.63;;
35326;SDS011;21436;52.348;20.928;2024-01-30T11:00:20;22.77;;;10.98;;
35326;SDS011;21436;52.348;20.928;2024-01-30T11:02:51;26.02;;;10.07;;
35326;SDS011;21436;52.348;20.928;2024-01-30T11:05:25;20.67;;;10.20;;
35326;SDS011;21436;52.348;20.928;2024-01-30T11:08:10;23.10;;;10.63;;
35326;SDS011;21436;52.348;20.928;2024-01-30T11:10:48;22.63;;;10.25;;
35326;SDS011;21436;52.348;20.928;2024-01-30T11:13:18;24.42;;;11.02;;
35326;SDS011;21436;52.348;20.928;2024-01-30T11:15:47;22.60;;;10.57;;
35326;SDS011;21436;52.348;20.928;2024-01-30T11:18:23;21.33;;;9.80;;
35326;SDS011;21436;52.348;20.928;2024-01-30T11:20:51;23.00;;;11.23;;
35326;SDS011;21436;52.348;20.928;2024-01-30T11:23:21;23.00;;;10.88;;
35326;SDS011;21436;52.348;20.928;2024-01-30T11:25:49;23.67;;;10.43;;
35326;SDS011;21436;52.348;20.928;2024-01-30T11:28:20;20.23;;;10.50;;
35326;SDS011;21436;52.348;20.928;2024-01-30T11:30:49;22.17;;;9.85;;
35326;SDS011;21436;52.348;20.928;2024-01-30T11:33:32;20.77;;;9.88;;
35326;SDS011;21436;52.348;20.928;2024-01-30T11:36:01;21.20;;;10.02;;
35326;SDS011;21436;52.348;20.928;2024-01-30T11:38:34;21.27;;;9.82;;
35326;SDS011;21436;52.348;20.928;2024-01-30T11:41:02;23.20;;;9.95;;
35326;SDS011;21436;52.348;20.928;2024-01-30T11:43:31;22.52;;;10.43;;
35326;SDS011;21436;52.348;20.928;2024-01-30T11:46:01;21.88;;;10.05;;
35326;SDS011;21436;52.348;20.928;2024-01-30T11:48:30;22.60;;;9.88;;
35326;SDS011;21436;52.348;20.928;2024-01-30T11:50:57;19.38;;;9.15;;
35326;SDS011;21436;52.348;20.928;2024-01-30T11:53:25;20.80;;;9.85;;
35326;SDS011;21436;52.348;20.928;2024-01-30T11:55:52;22.88;;;10.30;;
35326;SDS011;21436;52.348;20.928;2024-01-30T11:58:24;22.33;;;9.80;;
35326;SDS011;21436;52.348;20.928;2024-01-30T12:00:53;23.13;;;10.70;;
35326;SDS011;21436;52.348;20.928;2024-01-30T12:03:23;19.30;;;9.98;;
35326;SDS011;21436;52.348;20.928;2024-01-30T12:05:58;25.92;;;10.70;;
35326;SDS011;21436;52.348;20.928;2024-01-30T12:08:26;22.40;;;9.75;;
35326;SDS011;21436;52.348;20.928;2024-01-30T12:10:55;25.05;;;10.50;;
35326;SDS011;21436;52.348;20.928;2024-01-30T12:13:26;17.92;;;8.95;;
35326;SDS011;21436;52.348;20.928;2024-01-30T12:16:00;20.30;;;9.07;;
35326;SDS011;21436;52.348;20.928;2024-01-30T12:18:29;25.00;;;10.20;;
35326;SDS011;21436;52.348;20.928;2024-01-30T12:20:59;23.20;;;9.80;;
35326;SDS011;21436;52.348;20.928;2024-01-30T12:23:28;20.65;;;9.80;;
35326;SDS011;21436;52.348;20.928;2024-01-30T12:25:56;21.15;;;9.73;;
35326;SDS011;21436;52.348;20.928;2024-01-30T12:28:25;22.92;;;10.38;;
35326;SDS011;21436;52.348;20.928;2024-01-30T12:30:56;23.60;;;10.00;;
35326;SDS011;21436;52.348;20.928;2024-01-30T12:33:29;21.58;;;9.85;;
35326;SDS011;21436;52.348;20.928;2024-01-30T12:36:01;21.42;;;10.07;;
35326;SDS011;21436;52.348;20.928;2024-01-30T12:38:30;22.13;;;9.93;;
35326;SDS011;21436;52.348;20.928;2024-01-30T12:40:59;21.35;;;10.45;;
35326;SDS011;21436;52.348;20.928;2024-01-30T12:43:27;18.55;;;9.73;;
35326;SDS011;21436;52.348;20.928;2024-01-30T12:46:05;22.70;;;10.15;;
35326;SDS011;21436;52.348;20.928;2024-01-30T12:48:34;19.13;;;9.20;;
35326;SDS011;21436;52.348;20.928;2024-01-30T12:51:01;21.52;;;9.73;;
35326;SDS011;21436;52.348;20.928;2024-01-30T12:53:29;16.30;;;8.93;;
35326;SDS011;21436;52.348;20.928;2024-01-30T12:55:57;22.48;;;9.73;;
35326;SDS011;21436;52.348;20.928;2024-01-30T12:58:25;23.98;;;9.88;;
35326;SDS011;21436;52.348;20.928;2024-01-30T13:00:53;23.15;;;11.18;;
35326;SDS011;21436;52.348;20.928;2024-01-30T13:03:21;24.90;;;10.60;;
35326;SDS011;21436;52.348;20.928;2024-01-30T13:05:49;21.52;;;10.73;;
35326;SDS011;21436;52.348;20.928;2024-01-30T13:08:17;20.83;;;10.32;;
35326;SDS011;21436;52.348;20.928;2024-01-30T13:10:45;22.65;;;10.50;;
35326;SDS011;21436;52.348;20.928;2024-01-30T13:13:16;20.42;;;10.07;;
35326;SDS011;21436;52.348;20.928;2024-01-30T13:15:47;22.80;;;10.82;;
35326;SDS011;21436;52.348;20.928;2024-01-30T13:18:16;22.17;;;11.27;;
35326;SDS011;21436;52.348;20.928;2024-01-30T13:20:43;21.30;;;10.80;;
35326;SDS011;21436;52.348;20.928;2024-01-30T13:23:11;25.65;;;10.15;;
35326;SDS011;21436;52.348;20.928;2024-01-30T13:25:39;18.20;;;9.73;;
35326;SDS011;21436;52.348;20.928;2024-01-30T13:28:07;21.95;;;9.70;;
35326;SDS011;21436;52.348;20.928;2024-01-30T13:30:35;24.33;;;9.85;;
35326;SDS011;21436;52.348;20.928;2024-01-30T13:33:03;22.30;;;9.93;;
35326;SDS011;21436;52.348;20.928;2024-01-30T13:35:31;22.15;;;10.20;;
35326;SDS011;21436;52.348;20.928;2024-01-30T13:37:59;24.00;;;10.18;;
35326;SDS011;21436;52.348;20.928;2024-01-30T13:40:27;25.77;;;10.68;;
35326;SDS011;21436;52.348;20.928;2024-01-30T13:42:55;26.17;;;10.35;;
35326;SDS011;21436;52.348;20.928;2024-01-30T13:45:22;21.67;;;10.27;;
35326;SDS011;21436;52.348;20.928;2024-01-30T13:47:50;22.67;;;9.40;;
35326;SDS011;21436;52.348;20.928;2024-01-30T13:50:18;26.25;;;9.80;;
35326;SDS011;21436;52.348;20.928;2024-01-30T13:52:46;23.55;;;8.82;;
35326;SDS011;21436;52.348;20.928;2024-01-30T13:55:14;22.27;;;10.77;;
35326;SDS011;21436;52.348;20.928;2024-01-30T13:57:42;25.48;;;10.48;;
35326;SDS011;21436;52.348;20.928;2024-01-30T14:00:10;21.55;;;9.85;;
35326;SDS011;21436;52.348;20.928;2024-01-30T14:02:41;21.65;;;11.32;;
35326;SDS011;21436;52.348;20.928;2024-01-30T14:05:09;27.30;;;10.85;;
35326;SDS011;21436;52.348;20.928;2024-01-30T14:07:38;31.45;;;11.52;;
35326;SDS011;21436;52.348;20.928;2024-01-30T14:10:07;25.90;;;11.10;;
35326;SDS011;21436;52.348;20.928;2024-01-30T14:12:39;22.25;;;10.65;;
35326;SDS011;21436;52.348;20.928;2024-01-30T14:15:07;26.88;;;11.60;;
35326;SDS011;21436;52.348;20.928;2024-01-30T14:17:53;27.75;;;12.02;;
35326;SDS011;21436;52.348;20.928;2024-01-30T14:20:21;24.42;;;11.23;;
35326;SDS011;21436;52.348;20.928;2024-01-30T14:22:49;29.10;;;11.68;;
35326;SDS011;21436;52.348;20.928;2024-01-30T14:25:17;27.00;;;10.65;;
35326;SDS011;21436;52.348;20.928;2024-01-30T14:27:45;25.83;;;11.00;;
35326;SDS011;21436;52.348;20.928;2024-01-30T14:30:13;25.77;;;11.40;;
35326;SDS011;21436;52.348;20.928;2024-01-30T14:32:41;27.52;;;11.63;;
35326;SDS011;21436;52.348;20.928;2024-01-30T14:35:11;22.70;;;11.57;;
35326;SDS011;21436;52.348;20.928;2024-01-30T14:37:39;24.00;;;11.07;;
35326;SDS011;21436;52.348;20.928;2024-01-30T14:40:07;29.40;;;13.45;;
35326;SDS011;21436;52.348;20.928;2024-01-30T14:42:35;29.92;;;13.40;;
35326;SDS011;21436;52.348;20.928;2024-01-30T14:45:05;28.90;;;12.93;;
35326;SDS011;21436;52.348;20.928;2024-01-30T14:47:34;28.58;;;12.35;;
35326;SDS011;21436;52.348;20.928;2024-01-30T14:50:03;31.63;;;13.85;;
35326;SDS011;21436;52.348;20.928;2024-01-30T14:52:35;30.80;;;12.00;;
35326;SDS011;21436;52.348;20.928;2024-01-30T14:55:04;34.03;;;12.98;;
35326;SDS011;21436;52.348;20.928;2024-01-30T14:57:32;28.05;;;12.45;;